createdAt,value
2019-04-07T00:02:01.004Z,99.90
2019-04-07T00:04:28.780Z,99.90
2019-04-07T00:06:56.454Z,99.90
2019-04-07T00:09:24.157Z,99.90
2019-04-07T00:11:51.967Z,99.90
2019-04-07T00:14:19.665Z,99.90
2019-04-07T00:16:47.287Z,99.90
2019-04-07T00:19:15.540Z,99.90
2019-04-07T00:21:43.285Z,99.90
2019-04-07T00:24:10.952Z,99.90
2019-04-07T00:26:38.593Z,99.90
2019-04-07T00:29:06.322Z,99.90
2019-04-07T00:31:33.989Z,99.90
2019-04-07T00:34:01.633Z,99.90
2019-04-07T00:36:29.281Z,99.90
2019-04-07T00:38:56.894Z,99.90
2019-04-07T00:41:24.843Z,99.90
2019-04-07T00:43:52.539Z,99.90
2019-04-07T00:46:20.186Z,99.90
2019-04-07T00:48:48.563Z,99.90
2019-04-07T00:51:16.732Z,99.90
2019-04-07T00:53:44.362Z,99.90
2019-04-07T00:56:12.480Z,99.90
2019-04-07T00:58:40.740Z,99.90
2019-04-07T01:01:09.119Z,99.90
2019-04-07T01:03:36.764Z,99.90
2019-04-07T01:06:04.426Z,99.90
2019-04-07T01:08:32.634Z,99.90
2019-04-07T01:11:00.259Z,99.90
2019-04-07T01:13:27.926Z,99.90
2019-04-07T01:15:56.064Z,99.90
2019-04-07T01:18:26.120Z,99.90
2019-04-07T01:20:53.274Z,99.90
2019-04-07T01:23:20.993Z,99.90
2019-04-07T01:25:48.688Z,99.90
2019-04-07T01:28:16.377Z,99.90
2019-04-07T01:30:44.157Z,99.90
2019-04-07T01:33:11.787Z,99.90
2019-04-07T01:35:46.257Z,99.90
2019-04-07T01:38:08.864Z,99.90
2019-04-07T01:40:36.532Z,99.90
2019-04-07T01:43:22.693Z,99.90
2019-04-07T01:46:12.586Z,99.90
2019-04-07T01:48:59.714Z,99.90
2019-04-07T01:51:50.390Z,99.90
2019-04-07T01:54:47.236Z,99.90
2019-04-07T01:57:37.160Z,99.90
2019-04-07T02:00:32.938Z,99.90
2019-04-07T02:03:20.388Z,99.90
2019-04-07T02:06:07.599Z,99.90
2019-04-07T02:08:46.327Z,99.90
2019-04-07T02:11:20.067Z,99.90
2019-04-07T02:14:10.186Z,99.90
2019-04-07T02:16:51.294Z,99.90
2019-04-07T02:19:28.638Z,99.90
2019-04-07T02:22:15.889Z,99.90
2019-04-07T02:25:10.748Z,99.90
2019-04-07T02:27:47.957Z,99.90
2019-04-07T02:30:48.067Z,99.90
2019-04-07T02:33:39.330Z,99.90
2019-04-07T02:36:22.707Z,99.90
2019-04-07T02:39:00.632Z,99.90
2019-04-07T02:41:48.855Z,99.90
2019-04-07T02:44:38.964Z,99.90
2019-04-07T02:47:29.703Z,99.90
2019-04-07T02:50:10.202Z,99.90
2019-04-07T02:52:59.798Z,99.90
2019-04-07T02:55:50.627Z,99.90
2019-04-07T02:58:55.870Z,99.90
2019-04-07T03:01:52.067Z,99.90
2019-04-07T03:04:47.899Z,99.90
2019-04-07T03:07:50.452Z,99.90
2019-04-07T03:10:38.492Z,99.90
2019-04-07T03:13:43.523Z,99.90
2019-04-07T03:16:29.319Z,99.90
2019-04-07T03:19:03.133Z,99.90
2019-04-07T03:21:59.555Z,99.90
2019-04-07T03:24:33.457Z,99.90
2019-04-07T03:27:22.494Z,99.90
2019-04-07T03:30:17.838Z,99.90
2019-04-07T03:33:13.398Z,99.90
2019-04-07T03:36:06.815Z,99.90
2019-04-07T03:38:53.658Z,99.90
2019-04-07T03:41:29.521Z,99.90
2019-04-07T03:44:06.130Z,99.90
2019-04-07T03:47:08.803Z,99.90
2019-04-07T03:50:03.193Z,99.90
2019-04-07T03:52:51.042Z,99.90
2019-04-07T03:55:41.190Z,99.90
2019-04-07T03:58:37.608Z,99.90
2019-04-07T04:01:26.001Z,99.90
2019-04-07T04:04:03.199Z,99.90
2019-04-07T04:06:49.503Z,99.90
2019-04-07T04:09:26.439Z,99.90
2019-04-07T04:12:07.214Z,99.90
2019-04-07T04:14:43.910Z,99.90
2019-04-07T04:17:11.624Z,99.90
2019-04-07T04:19:39.201Z,99.90
2019-04-07T04:22:07.374Z,99.90
2019-04-07T04:24:35.172Z,99.90
2019-04-07T04:27:02.817Z,99.90
2019-04-07T04:29:30.490Z,99.90
2019-04-07T04:31:59.633Z,99.90
2019-04-07T04:34:27.324Z,99.90
2019-04-07T04:36:55.049Z,99.90
2019-04-07T04:39:22.927Z,99.90
2019-04-07T04:41:50.888Z,99.90
2019-04-07T04:44:18.749Z,99.90
2019-04-07T04:46:47.305Z,99.90
2019-04-07T04:49:15.143Z,99.90
2019-04-07T04:51:42.750Z,99.90
2019-04-07T04:54:11.086Z,99.90
2019-04-07T04:56:39.435Z,99.90
2019-04-07T04:59:07.457Z,99.90
2019-04-07T05:01:36.092Z,99.90
2019-04-07T05:04:03.955Z,99.90
2019-04-07T05:06:31.594Z,99.90
2019-04-07T05:08:59.314Z,99.90
2019-04-07T05:11:26.951Z,99.90
2019-04-07T05:13:54.615Z,99.90
2019-04-07T05:16:22.928Z,99.90
2019-04-07T05:18:50.713Z,99.90
2019-04-07T05:21:18.582Z,99.90
2019-04-07T05:23:46.227Z,99.90
2019-04-07T05:26:14.692Z,99.90
2019-04-07T05:28:42.643Z,99.90
2019-04-07T05:31:10.449Z,99.90
2019-04-07T05:33:38.212Z,99.90
2019-04-07T05:36:05.954Z,99.90
2019-04-07T05:38:33.712Z,99.90
2019-04-07T05:41:01.876Z,99.90
2019-04-07T05:43:29.630Z,99.90
2019-04-07T05:45:57.609Z,99.90
2019-04-07T05:48:25.792Z,99.90
2019-04-07T05:50:53.844Z,99.90
2019-04-07T05:53:21.620Z,99.90
2019-04-07T05:55:49.269Z,99.90
2019-04-07T05:58:17.913Z,99.90
2019-04-07T06:00:47.018Z,99.90
2019-04-07T06:03:15.378Z,99.90
2019-04-07T06:05:45.328Z,99.90
2019-04-07T06:08:25.800Z,99.90
2019-04-07T06:10:41.963Z,99.90
2019-04-07T06:13:12.944Z,99.90
2019-04-07T06:15:39.151Z,99.90
2019-04-07T06:18:06.814Z,99.90
2019-04-07T06:20:34.478Z,99.90
2019-04-07T06:23:02.123Z,99.90
2019-04-07T06:25:33.109Z,99.90
2019-04-07T06:27:59.315Z,99.90
2019-04-07T06:30:30.010Z,99.90
2019-04-07T06:32:56.982Z,99.90
2019-04-07T06:35:24.688Z,99.90
2019-04-07T06:37:53.050Z,99.90
2019-04-07T06:40:22.196Z,99.90
2019-04-07T06:42:50.103Z,99.90
2019-04-07T06:45:21.807Z,99.90
2019-04-07T06:47:55.271Z,99.90
2019-04-07T06:50:49.357Z,99.90
2019-04-07T06:53:34.756Z,99.90
2019-04-07T06:56:25.903Z,99.90
2019-04-07T06:59:13.864Z,99.90
2019-04-07T07:02:13.270Z,99.90
2019-04-07T07:04:51.615Z,99.90
2019-04-07T07:07:48.836Z,99.90
2019-04-07T07:10:38.989Z,99.90
2019-04-07T07:13:34.771Z,99.90
2019-04-07T07:16:09.577Z,99.90
2019-04-07T07:19:02.155Z,99.90
2019-04-07T07:21:43.641Z,99.90
2019-04-07T07:24:11.774Z,99.90
2019-04-07T07:26:40.776Z,99.90
2019-04-07T07:29:08.420Z,99.90
2019-04-07T07:31:36.065Z,99.90
2019-04-07T07:34:03.904Z,99.90
2019-04-07T07:36:31.686Z,99.90
2019-04-07T07:39:02.257Z,99.90
2019-04-07T07:41:29.050Z,99.90
2019-04-07T07:44:00.722Z,99.90
2019-04-07T07:46:26.803Z,99.90
2019-04-07T07:48:58.830Z,99.90
2019-04-07T07:51:24.797Z,99.90
2019-04-07T07:53:52.696Z,99.90
2019-04-07T07:56:21.321Z,99.90
2019-04-07T07:58:49.326Z,99.90
2019-04-07T08:01:17.833Z,99.90
2019-04-07T08:03:45.918Z,99.90
2019-04-07T08:06:13.585Z,99.90
2019-04-07T08:08:41.238Z,99.90
2019-04-07T08:11:08.890Z,99.90
2019-04-07T08:13:42.040Z,99.90
2019-04-07T08:16:06.372Z,99.90
2019-04-07T08:18:36.148Z,99.90
2019-04-07T08:21:04.299Z,99.90
2019-04-07T08:23:31.983Z,99.90
2019-04-07T08:26:00.359Z,99.90
2019-04-07T08:28:28.064Z,99.90
2019-04-07T08:30:55.787Z,99.90
2019-04-07T08:33:23.744Z,99.90
2019-04-07T08:35:54.888Z,99.90
2019-04-07T08:38:25.574Z,99.90
2019-04-07T08:40:54.073Z,99.90
2019-04-07T08:43:22.819Z,99.90
2019-04-07T08:45:51.412Z,99.90
2019-04-07T08:48:20.651Z,99.90
2019-04-07T08:50:48.626Z,99.90
2019-04-07T08:53:16.937Z,99.90
2019-04-07T08:55:47.320Z,99.90
2019-04-07T08:58:23.597Z,99.90
2019-04-07T09:00:50.992Z,99.90
2019-04-07T09:03:17.091Z,99.90
2019-04-07T09:05:45.521Z,99.90
2019-04-07T09:08:13.856Z,99.90
2019-04-07T09:10:49.200Z,99.90
2019-04-07T09:13:15.549Z,99.90
2019-04-07T09:15:52.269Z,99.90
2019-04-07T09:18:30.767Z,99.90
2019-04-07T09:21:19.942Z,99.90
2019-04-07T09:24:03.884Z,99.90
2019-04-07T09:26:44.543Z,99.90
2019-04-07T09:29:31.239Z,99.90
2019-04-07T09:32:22.594Z,99.90
2019-04-07T09:35:22.769Z,99.90
2019-04-07T09:38:03.156Z,99.90
2019-04-07T09:40:59.352Z,99.90
2019-04-07T09:43:46.517Z,99.90
2019-04-07T09:46:23.163Z,99.90
2019-04-07T09:49:23.812Z,99.90
2019-04-07T09:52:00.973Z,99.90
2019-04-07T09:55:03.115Z,99.90
2019-04-07T09:57:47.314Z,99.90
2019-04-07T10:00:35.226Z,99.90
2019-04-07T10:03:31.266Z,99.90
2019-04-07T10:06:10.846Z,99.90
2019-04-07T10:08:56.355Z,99.90
2019-04-07T10:11:46.367Z,99.90
2019-04-07T10:14:48.822Z,99.90
2019-04-07T10:17:39.490Z,99.90
2019-04-07T10:20:22.876Z,99.90
2019-04-07T10:23:19.653Z,99.90
2019-04-07T10:26:21.808Z,99.90
2019-04-07T10:29:00.577Z,99.90
2019-04-07T10:31:46.390Z,99.90
2019-04-07T10:34:23.733Z,99.90
2019-04-07T10:37:16.927Z,99.90
2019-04-07T10:40:00.382Z,99.90
2019-04-07T10:42:46.589Z,99.90
2019-04-07T10:45:32.937Z,99.90
2019-04-07T10:48:25.907Z,99.90
2019-04-07T10:51:29.331Z,99.90
2019-04-07T10:54:12.512Z,99.90
2019-04-07T10:57:02.005Z,99.90
2019-04-07T10:59:44.249Z,99.90
2019-04-07T11:02:22.594Z,99.90
2019-04-07T11:05:18.681Z,99.90
2019-04-07T11:08:14.962Z,99.90
2019-04-07T11:10:54.328Z,99.90
2019-04-07T11:13:40.355Z,99.90
2019-04-07T11:16:14.726Z,99.90
2019-04-07T11:19:02.008Z,99.90
2019-04-07T11:21:58.000Z,99.90
2019-04-07T11:24:48.779Z,99.90
2019-04-07T11:27:36.541Z,99.90
2019-04-07T11:30:11.396Z,99.90
2019-04-07T11:32:48.237Z,99.90
2019-04-07T11:35:21.108Z,99.90
2019-04-07T11:38:04.623Z,99.90
2019-04-07T11:40:57.905Z,99.90
2019-04-07T11:43:47.945Z,99.90
2019-04-07T11:46:34.038Z,99.90
2019-04-07T11:49:19.532Z,99.90
2019-04-07T11:51:52.415Z,99.90
2019-04-07T11:54:35.032Z,99.90
2019-04-07T11:57:09.816Z,99.90
2019-04-07T11:59:45.818Z,99.90
2019-04-07T12:02:36.387Z,99.00
2019-04-07T12:05:31.061Z,98.10
2019-04-07T12:08:16.700Z,98.80
2019-04-07T12:11:05.031Z,98.90
2019-04-07T12:13:54.320Z,97.90
2019-04-07T12:16:40.204Z,97.10
2019-04-07T12:19:26.148Z,96.80
2019-04-07T12:22:03.441Z,95.70
2019-04-07T12:24:39.933Z,92.60
2019-04-07T12:27:27.034Z,94.80
2019-04-07T12:30:29.157Z,95.30
2019-04-07T12:33:22.904Z,95.70
2019-04-07T12:36:03.587Z,95.40
2019-04-07T12:39:09.166Z,94.40
2019-04-07T12:41:50.057Z,93.80
2019-04-07T12:44:37.404Z,93.10
2019-04-07T12:47:23.739Z,92.30
2019-04-07T12:50:04.100Z,91.90
2019-04-07T12:52:49.884Z,92.00
2019-04-07T12:55:37.223Z,91.70
2019-04-07T12:58:22.185Z,91.30
2019-04-07T13:01:09.733Z,90.90
2019-04-07T13:03:52.538Z,91.30
2019-04-07T13:06:49.026Z,90.90
2019-04-07T13:09:48.131Z,91.30
2019-04-07T13:12:47.843Z,91.40
2019-04-07T13:15:35.111Z,91.90
2019-04-07T13:18:31.593Z,90.60
2019-04-07T13:21:08.948Z,90.60
2019-04-07T13:24:06.183Z,90.60
2019-04-07T13:26:49.884Z,89.80
2019-04-07T13:29:34.316Z,90.10
2019-04-07T13:32:21.883Z,89.40
2019-04-07T13:34:58.353Z,88.90
2019-04-07T13:37:31.846Z,87.10
2019-04-07T13:40:21.812Z,86.70
2019-04-07T13:43:00.774Z,85.30
2019-04-07T13:45:53.918Z,84.40
2019-04-07T13:48:41.445Z,84.40
2019-04-07T13:51:31.217Z,82.40
2019-04-07T13:54:15.031Z,82.20
2019-04-07T13:57:02.298Z,81.10
2019-04-07T13:59:44.070Z,80.20
2019-04-07T14:02:45.640Z,79.50
2019-04-07T14:05:21.372Z,80.50
2019-04-07T14:08:07.125Z,80.30
2019-04-07T14:10:52.821Z,79.40
2019-04-07T14:13:31.150Z,79.40
2019-04-07T14:16:17.049Z,80.70
2019-04-07T14:19:16.680Z,81.30
2019-04-07T14:22:10.098Z,80.70
2019-04-07T14:25:00.349Z,80.40
2019-04-07T14:27:37.328Z,80.00
2019-04-07T14:30:25.976Z,80.40
2019-04-07T14:33:25.121Z,80.20
2019-04-07T14:36:08.084Z,81.10
2019-04-07T14:38:43.567Z,80.10
2019-04-07T14:41:39.350Z,80.10
2019-04-07T14:44:29.329Z,81.90
2019-04-07T14:47:11.870Z,80.50
2019-04-07T14:49:49.479Z,79.90
2019-04-07T14:52:42.629Z,80.20
2019-04-07T14:55:38.498Z,79.80
2019-04-07T14:58:34.458Z,80.40
2019-04-07T15:01:25.669Z,80.20
2019-04-07T15:03:53.404Z,80.40
2019-04-07T15:06:21.740Z,80.20
2019-04-07T15:09:08.823Z,80.70
2019-04-07T15:11:58.805Z,81.00
2019-04-07T15:14:26.449Z,81.00
2019-04-07T15:16:54.677Z,82.30
2019-04-07T15:19:22.420Z,82.60
2019-04-07T15:21:53.071Z,82.30
2019-04-07T15:24:19.886Z,82.20
2019-04-07T15:26:49.883Z,82.40
2019-04-07T15:29:17.000Z,82.00
2019-04-07T15:31:49.051Z,82.60
2019-04-07T15:34:15.149Z,82.60
2019-04-07T15:36:43.920Z,83.00
2019-04-07T15:39:11.746Z,82.80
2019-04-07T15:41:42.526Z,82.70
2019-04-07T15:44:10.491Z,82.00
2019-04-07T15:46:38.445Z,81.30
2019-04-07T15:49:06.852Z,81.00
2019-04-07T15:51:36.191Z,81.10
2019-04-07T15:54:03.957Z,81.70
2019-04-07T15:56:32.511Z,81.60
2019-04-07T15:59:01.404Z,81.60
2019-04-07T16:01:29.789Z,80.70
2019-04-07T16:03:57.468Z,80.60
2019-04-07T16:06:25.881Z,82.10
2019-04-07T16:08:57.309Z,81.50
2019-04-07T16:11:24.780Z,80.70
2019-04-07T16:13:52.632Z,80.10
2019-04-07T16:16:21.004Z,80.40
2019-04-07T16:18:48.760Z,81.00
2019-04-07T16:21:17.404Z,81.40
2019-04-07T16:23:50.474Z,80.70
2019-04-07T16:26:15.516Z,80.70
2019-04-07T16:28:45.403Z,80.70
2019-04-07T16:31:13.287Z,81.10
2019-04-07T16:33:41.063Z,81.10
2019-04-07T16:36:08.805Z,81.40
2019-04-07T16:38:36.608Z,80.60
2019-04-07T16:41:04.703Z,81.20
2019-04-07T16:43:33.904Z,81.70
2019-04-07T16:46:02.036Z,82.70
2019-04-07T16:48:30.468Z,83.70
2019-04-07T16:50:58.174Z,84.00
2019-04-07T16:53:25.947Z,84.80
2019-04-07T16:55:55.609Z,85.80
2019-04-07T16:58:23.054Z,85.30
2019-04-07T17:00:51.073Z,86.40
2019-04-07T17:03:18.727Z,86.80
2019-04-07T17:05:46.413Z,87.20
2019-04-07T17:08:17.831Z,88.20
2019-04-07T17:10:43.679Z,89.30
2019-04-07T17:13:19.789Z,89.40
2019-04-07T17:15:41.961Z,90.80
2019-04-07T17:18:34.471Z,90.80
2019-04-07T17:21:02.301Z,90.80
2019-04-07T17:23:29.967Z,90.80
2019-04-07T17:25:57.711Z,91.10
2019-04-07T17:28:25.408Z,91.60
2019-04-07T17:30:57.278Z,91.60
2019-04-07T17:33:24.816Z,91.70
2019-04-07T17:35:54.165Z,92.20
2019-04-07T17:38:24.322Z,92.50
2019-04-07T17:40:51.994Z,92.60
2019-04-07T17:43:47.355Z,93.00
2019-04-07T17:46:25.958Z,93.50
2019-04-07T17:49:05.586Z,93.80
2019-04-07T17:51:51.098Z,95.00
2019-04-07T17:54:38.548Z,97.30
2019-04-07T17:57:25.835Z,99.90
2019-04-07T18:00:04.672Z,99.90
2019-04-07T18:02:53.919Z,99.90
2019-04-07T18:05:53.555Z,99.90
2019-04-07T18:08:45.607Z,99.90
2019-04-07T18:11:39.080Z,99.90
2019-04-07T18:14:15.799Z,99.90
2019-04-07T18:17:04.533Z,99.90
2019-04-07T18:19:51.693Z,99.90
2019-04-07T18:22:29.763Z,99.90
2019-04-07T18:25:10.560Z,99.90
2019-04-07T18:27:48.157Z,99.90
2019-04-07T18:30:34.706Z,99.90
2019-04-07T18:33:31.395Z,99.90
2019-04-07T18:36:15.771Z,99.90
2019-04-07T18:39:03.141Z,99.90
2019-04-07T18:42:04.169Z,99.90
2019-04-07T18:44:57.627Z,99.90
2019-04-07T18:47:45.636Z,99.90
2019-04-07T18:50:38.426Z,99.90
2019-04-07T18:53:16.773Z,99.90
2019-04-07T18:56:22.609Z,99.90
2019-04-07T18:59:12.901Z,99.90
2019-04-07T19:01:56.739Z,99.90
2019-04-07T19:04:42.387Z,99.90
2019-04-07T19:07:41.769Z,99.90
2019-04-07T19:10:45.491Z,99.90
2019-04-07T19:13:24.766Z,99.90
2019-04-07T19:16:01.877Z,99.90
2019-04-07T19:18:42.157Z,99.90
2019-04-07T19:21:37.625Z,99.90
2019-04-07T19:24:36.173Z,99.90
2019-04-07T19:27:21.973Z,99.90
2019-04-07T19:30:03.965Z,99.90
2019-04-07T19:32:56.539Z,99.90
2019-04-07T19:35:42.457Z,99.90
2019-04-07T19:38:28.310Z,99.90
2019-04-07T19:41:33.903Z,99.90
2019-04-07T19:44:20.262Z,99.90
2019-04-07T19:47:01.625Z,99.90
2019-04-07T19:50:01.003Z,99.90
2019-04-07T19:52:48.079Z,99.90
2019-04-07T19:55:37.580Z,99.90
2019-04-07T19:58:24.694Z,99.90
2019-04-07T20:01:01.761Z,99.90
2019-04-07T20:03:47.348Z,99.90
2019-04-07T20:06:37.403Z,99.90
2019-04-07T20:09:15.615Z,99.90
2019-04-07T20:12:02.847Z,99.90
2019-04-07T20:14:49.218Z,99.90
2019-04-07T20:17:32.314Z,99.90
2019-04-07T20:20:31.297Z,99.90
2019-04-07T20:23:30.605Z,99.90
2019-04-07T20:26:22.676Z,99.90
2019-04-07T20:29:09.165Z,99.90
2019-04-07T20:31:51.588Z,99.90
2019-04-07T20:34:45.064Z,99.90
2019-04-07T20:37:30.125Z,99.90
2019-04-07T20:40:25.805Z,99.90
2019-04-07T20:43:12.903Z,99.90
2019-04-07T20:46:03.011Z,99.90
2019-04-07T20:48:39.841Z,99.90
2019-04-07T20:51:18.767Z,99.90
2019-04-07T20:53:59.816Z,99.90
2019-04-07T20:56:57.590Z,99.90
2019-04-07T20:59:51.360Z,99.90
2019-04-07T21:02:35.053Z,99.90
2019-04-07T21:05:10.522Z,99.90
2019-04-07T21:08:01.115Z,99.90
2019-04-07T21:10:44.412Z,99.90
2019-04-07T21:13:19.318Z,99.90
2019-04-07T21:16:08.231Z,99.90
2019-04-07T21:18:59.118Z,99.90
2019-04-07T21:21:39.578Z,99.90
2019-04-07T21:24:29.255Z,99.90
2019-04-07T21:27:20.601Z,99.90
2019-04-07T21:29:53.882Z,99.90
2019-04-07T21:32:41.155Z,99.90
2019-04-07T21:35:29.227Z,99.90
2019-04-07T21:38:32.758Z,99.90
2019-04-07T21:41:38.329Z,99.90
2019-04-07T21:44:28.551Z,99.90
2019-04-07T21:47:14.475Z,99.90
2019-04-07T21:50:05.438Z,99.90
2019-04-07T21:52:40.907Z,99.90
2019-04-07T21:55:30.821Z,99.90
2019-04-07T21:58:16.644Z,99.90
2019-04-07T22:00:56.579Z,99.90
2019-04-07T22:03:46.183Z,99.90
2019-04-07T22:06:32.026Z,99.90
2019-04-07T22:09:25.299Z,99.90
2019-04-07T22:11:54.581Z,99.90
2019-04-07T22:14:22.858Z,99.90
2019-04-07T22:16:51.272Z,99.90
2019-04-07T22:19:18.963Z,99.90
2019-04-07T22:21:46.605Z,99.90
2019-04-07T22:24:15.175Z,99.90
2019-04-07T22:26:46.203Z,99.90
2019-04-07T22:29:12.403Z,99.90
2019-04-07T22:31:47.792Z,99.90
2019-04-07T22:34:16.420Z,99.90
2019-04-07T22:36:46.995Z,99.90
2019-04-07T22:39:14.152Z,99.90
2019-04-07T22:41:43.003Z,99.90
2019-04-07T22:44:11.348Z,99.90
2019-04-07T22:46:39.615Z,99.90
2019-04-07T22:49:07.412Z,99.90
2019-04-07T22:51:35.054Z,99.90
2019-04-07T22:54:02.784Z,99.90
2019-04-07T22:56:31.084Z,99.90
2019-04-07T22:58:58.810Z,99.90
2019-04-07T23:01:27.183Z,99.90
2019-04-07T23:03:56.000Z,99.90
2019-04-07T23:06:24.489Z,99.90
2019-04-07T23:08:53.066Z,99.90
2019-04-07T23:11:20.750Z,99.90
2019-04-07T23:13:49.303Z,99.90
2019-04-07T23:16:17.918Z,99.90
2019-04-07T23:18:46.533Z,99.90
2019-04-07T23:21:14.905Z,99.90
2019-04-07T23:23:42.602Z,99.90
2019-04-07T23:26:10.274Z,99.90
2019-04-07T23:28:37.935Z,99.90
2019-04-07T23:31:05.644Z,99.90
2019-04-07T23:33:34.656Z,99.90
2019-04-07T23:36:02.438Z,99.90
2019-04-07T23:38:30.453Z,99.90
2019-04-07T23:40:58.191Z,99.90
2019-04-07T23:43:25.837Z,99.90
2019-04-07T23:45:53.458Z,99.90
2019-04-07T23:48:21.159Z,99.90
2019-04-07T23:50:49.785Z,99.90
2019-04-07T23:54:07.585Z,99.90
2019-04-07T23:56:36.413Z,99.90
2019-04-07T23:59:04.804Z,99.90
